createdAt,value
2022-10-09T00:01:10.994Z,59.50
2022-10-09T00:03:39.603Z,59.63
2022-10-09T00:06:08.112Z,59.74
2022-10-09T00:08:36.063Z,59.91
2022-10-09T00:11:11.145Z,59.84
2022-10-09T00:13:38.082Z,60.06
2022-10-09T00:16:07.144Z,60.14
2022-10-09T00:18:34.648Z,60.01
2022-10-09T00:21:01.702Z,60.50
2022-10-09T00:23:28.600Z,60.23
2022-10-09T00:25:59.077Z,60.42
2022-10-09T00:28:27.811Z,60.33
2022-10-09T00:30:54.740Z,60.31
2022-10-09T00:33:22.002Z,60.27
2022-10-09T00:35:49.139Z,60.32
2022-10-09T00:38:16.673Z,60.33
2022-10-09T00:40:43.515Z,60.43
2022-10-09T00:43:17.360Z,60.54
2022-10-09T00:45:56.604Z,60.63
2022-10-09T00:48:23.890Z,60.92
2022-10-09T00:50:56.738Z,60.51
2022-10-09T00:53:27.054Z,60.59
2022-10-09T00:55:54.308Z,60.99
2022-10-09T00:58:22.424Z,60.98
2022-10-09T01:00:49.494Z,60.91
2022-10-09T01:03:16.442Z,60.68
2022-10-09T01:06:24.786Z,60.32
2022-10-09T01:09:05.700Z,60.65
2022-10-09T01:11:38.474Z,60.50
2022-10-09T01:14:17.335Z,60.47
2022-10-09T01:16:55.815Z,60.95
2022-10-09T01:20:01.069Z,60.94
2022-10-09T01:23:03.773Z,60.93
2022-10-09T01:25:40.227Z,61.77
2022-10-09T01:28:08.560Z,61.96
2022-10-09T01:30:35.615Z,62.00
2022-10-09T01:33:03.670Z,62.10
2022-10-09T01:35:31.862Z,62.17
2022-10-09T01:38:00.185Z,62.32
2022-10-09T01:40:28.584Z,62.47
2022-10-09T01:42:56.317Z,62.37
2022-10-09T01:45:23.162Z,62.63
2022-10-09T01:47:50.035Z,62.72
2022-10-09T01:50:30.625Z,62.49
2022-10-09T01:53:03.443Z,63.04
2022-10-09T01:55:49.713Z,62.85
2022-10-09T01:58:22.245Z,62.73
2022-10-09T02:01:13.157Z,62.95
2022-10-09T02:03:43.033Z,62.96
2022-10-09T02:06:12.868Z,62.96
2022-10-09T02:08:41.580Z,63.03
2022-10-09T02:11:08.513Z,62.49
2022-10-09T02:13:36.232Z,62.56
2022-10-09T02:16:11.778Z,62.40
2022-10-09T02:18:43.307Z,62.71
2022-10-09T02:21:15.119Z,62.52
2022-10-09T02:23:44.498Z,63.09
2022-10-09T02:26:12.725Z,62.74
2022-10-09T02:28:45.081Z,62.87
2022-10-09T02:31:30.894Z,62.61
2022-10-09T02:33:59.373Z,62.79
2022-10-09T02:36:27.031Z,63.12
2022-10-09T02:38:55.504Z,63.43
2022-10-09T02:41:23.004Z,63.44
2022-10-09T02:43:50.327Z,63.38
2022-10-09T02:46:17.534Z,63.23
2022-10-09T02:48:44.717Z,63.65
2022-10-09T02:51:11.868Z,63.91
2022-10-09T02:53:38.647Z,64.02
2022-10-09T02:56:05.752Z,64.25
2022-10-09T02:58:34.349Z,64.21
2022-10-09T03:01:01.527Z,64.26
2022-10-09T03:03:28.303Z,64.54
2022-10-09T03:06:12.771Z,64.35
2022-10-09T03:08:42.412Z,64.13
2022-10-09T03:11:10.294Z,64.02
2022-10-09T03:13:37.255Z,63.90
2022-10-09T03:16:18.221Z,63.55
2022-10-09T03:18:46.557Z,63.52
2022-10-09T03:21:17.436Z,63.37
2022-10-09T03:23:44.822Z,63.44
2022-10-09T03:26:14.956Z,63.72
2022-10-09T03:28:44.564Z,63.54
2022-10-09T03:31:22.553Z,64.12
2022-10-09T03:33:54.708Z,64.65
2022-10-09T03:36:21.433Z,65.17
2022-10-09T03:38:48.160Z,65.36
2022-10-09T03:41:15.009Z,65.15
2022-10-09T03:43:41.711Z,64.98
2022-10-09T03:46:09.204Z,65.48
2022-10-09T03:48:36.879Z,65.42
2022-10-09T03:51:04.261Z,66.03
2022-10-09T03:53:31.701Z,65.73
2022-10-09T03:55:58.611Z,64.90
2022-10-09T03:58:25.452Z,64.77
2022-10-09T04:00:53.209Z,64.58
2022-10-09T04:03:20.861Z,64.48
2022-10-09T04:05:47.617Z,64.50
2022-10-09T04:08:14.425Z,64.24
2022-10-09T04:10:41.446Z,64.43
2022-10-09T04:13:08.161Z,64.17
2022-10-09T04:15:35.513Z,63.91
2022-10-09T04:18:02.485Z,63.96
2022-10-09T04:20:29.267Z,63.95
2022-10-09T04:22:56.057Z,63.88
2022-10-09T04:25:22.895Z,64.39
2022-10-09T04:27:49.704Z,64.42
2022-10-09T04:30:16.726Z,65.04
2022-10-09T04:32:43.589Z,64.76
2022-10-09T04:35:10.289Z,64.85
2022-10-09T04:37:37.070Z,64.59
2022-10-09T04:40:04.724Z,64.52
2022-10-09T04:42:31.449Z,64.69
2022-10-09T04:44:58.233Z,64.45
2022-10-09T04:47:25.088Z,64.23
2022-10-09T04:49:51.887Z,64.25
2022-10-09T04:52:18.601Z,64.38
2022-10-09T04:54:45.472Z,64.26
2022-10-09T04:57:12.325Z,64.35
2022-10-09T04:59:39.185Z,64.13
2022-10-09T05:02:06.140Z,64.16
2022-10-09T05:04:32.997Z,64.03
2022-10-09T05:06:59.797Z,63.95
2022-10-09T05:09:26.971Z,63.96
2022-10-09T05:11:53.860Z,64.12
2022-10-09T05:14:20.612Z,64.01
2022-10-09T05:17:12.630Z,63.74
2022-10-09T05:19:39.018Z,64.02
2022-10-09T05:22:05.860Z,64.16
2022-10-09T05:24:32.569Z,64.03
2022-10-09T05:27:01.955Z,64.13
2022-10-09T05:29:45.052Z,63.67
2022-10-09T05:32:25.746Z,63.45
2022-10-09T05:34:57.497Z,63.54
2022-10-09T05:37:24.253Z,63.42
2022-10-09T05:39:50.937Z,64.09
2022-10-09T05:42:17.723Z,63.82
2022-10-09T05:44:44.461Z,63.64
2022-10-09T05:47:11.206Z,63.38
2022-10-09T05:49:37.943Z,63.98
2022-10-09T05:52:04.752Z,63.90
2022-10-09T05:54:32.449Z,64.04
2022-10-09T05:56:59.314Z,63.69
2022-10-09T05:59:26.076Z,63.73
2022-10-09T06:01:53.589Z,63.71
2022-10-09T06:04:23.293Z,63.56
2022-10-09T06:06:50.301Z,64.06
2022-10-09T06:09:19.404Z,63.95
2022-10-09T06:11:46.698Z,64.20
2022-10-09T06:14:14.007Z,64.33
2022-10-09T06:16:43.304Z,64.06
2022-10-09T06:19:15.662Z,64.06
2022-10-09T06:21:42.950Z,64.13
2022-10-09T06:24:18.460Z,64.15
2022-10-09T06:26:45.234Z,63.73
2022-10-09T06:29:12.048Z,63.69
2022-10-09T06:31:39.361Z,64.22
2022-10-09T06:34:06.085Z,63.97
2022-10-09T06:36:35.386Z,64.33
2022-10-09T06:39:05.632Z,64.23
2022-10-09T06:41:32.503Z,64.21
2022-10-09T06:44:01.462Z,64.20
2022-10-09T06:46:35.346Z,64.32
2022-10-09T06:49:03.403Z,64.12
2022-10-09T06:51:30.592Z,64.03
2022-10-09T06:53:59.674Z,63.79
2022-10-09T06:56:29.422Z,63.75
2022-10-09T06:58:59.190Z,64.14
2022-10-09T07:01:30.589Z,64.54
2022-10-09T07:04:07.285Z,64.40
2022-10-09T07:06:38.524Z,64.18
2022-10-09T07:09:07.888Z,64.15
2022-10-09T07:11:43.511Z,64.06
2022-10-09T07:14:11.627Z,63.62
2022-10-09T07:16:41.202Z,63.79
2022-10-09T07:19:11.330Z,63.95
2022-10-09T07:21:40.468Z,63.46
2022-10-09T07:24:07.540Z,63.98
2022-10-09T07:26:37.633Z,63.63
2022-10-09T07:29:06.652Z,63.61
2022-10-09T07:31:33.395Z,63.68
2022-10-09T07:34:00.431Z,63.46
2022-10-09T07:36:27.682Z,63.80
2022-10-09T07:38:56.438Z,63.57
2022-10-09T07:41:25.699Z,63.48
2022-10-09T07:43:53.211Z,63.61
2022-10-09T07:46:22.171Z,63.82
2022-10-09T07:48:49.655Z,64.10
2022-10-09T07:51:24.980Z,63.47
2022-10-09T07:53:52.339Z,63.48
2022-10-09T07:56:21.322Z,63.45
2022-10-09T07:58:53.015Z,63.47
2022-10-09T08:01:21.344Z,63.53
2022-10-09T08:03:49.172Z,63.51
2022-10-09T08:06:16.935Z,63.46
2022-10-09T08:08:44.112Z,63.50
2022-10-09T08:11:16.815Z,63.58
2022-10-09T08:13:45.445Z,63.05
2022-10-09T08:16:13.381Z,62.94
2022-10-09T08:18:40.297Z,63.34
2022-10-09T08:21:18.509Z,63.41
2022-10-09T08:23:45.609Z,63.71
2022-10-09T08:26:18.784Z,63.76
2022-10-09T08:28:54.367Z,64.17
2022-10-09T08:31:22.381Z,64.49
2022-10-09T08:33:52.884Z,64.48
2022-10-09T08:36:19.728Z,64.39
2022-10-09T08:38:48.139Z,63.60
2022-10-09T08:41:33.741Z,63.99
2022-10-09T08:44:11.460Z,64.18
2022-10-09T08:46:54.099Z,64.22
2022-10-09T08:49:30.012Z,64.47
2022-10-09T08:51:59.652Z,64.38
2022-10-09T08:54:38.451Z,64.20
2022-10-09T08:57:11.372Z,64.43
2022-10-09T08:59:38.412Z,65.11
2022-10-09T09:02:28.209Z,65.23
2022-10-09T09:05:04.133Z,64.99
2022-10-09T09:07:42.100Z,64.44
2022-10-09T09:10:29.241Z,64.28
2022-10-09T09:13:19.982Z,64.04
2022-10-09T09:15:46.976Z,63.78
2022-10-09T09:18:28.379Z,63.97
2022-10-09T09:20:58.643Z,63.53
2022-10-09T09:23:32.271Z,63.37
2022-10-09T09:25:59.777Z,63.13
2022-10-09T09:28:35.222Z,62.72
2022-10-09T09:31:22.798Z,62.64
2022-10-09T09:34:01.676Z,62.23
2022-10-09T09:36:33.766Z,61.88
2022-10-09T09:41:47.422Z,60.74
2022-10-09T09:44:17.080Z,60.38
2022-10-09T09:46:46.450Z,60.07
2022-10-09T09:49:23.995Z,59.73
2022-10-09T09:51:51.416Z,59.67
2022-10-09T09:54:24.928Z,59.22
2022-10-09T09:57:15.891Z,58.90
2022-10-09T09:59:44.314Z,58.74
2022-10-09T10:02:13.812Z,58.70
2022-10-09T10:04:58.367Z,58.66
2022-10-09T10:07:29.132Z,58.60
2022-10-09T10:10:23.963Z,58.38
2022-10-09T10:12:52.209Z,58.52
2022-10-09T10:15:25.651Z,58.53
2022-10-09T10:17:58.964Z,58.03
2022-10-09T10:20:27.395Z,57.42
2022-10-09T10:22:56.916Z,56.22
2022-10-09T10:25:33.891Z,55.41
2022-10-09T10:28:11.797Z,54.56
2022-10-09T10:30:39.547Z,53.70
2022-10-09T10:33:22.341Z,53.49
2022-10-09T10:35:52.811Z,53.28
2022-10-09T10:38:33.028Z,53.21
2022-10-09T10:41:08.958Z,52.94
2022-10-09T10:43:53.931Z,52.54
2022-10-09T10:46:37.146Z,52.56
2022-10-09T10:49:04.142Z,51.71
2022-10-09T10:51:46.529Z,50.91
2022-10-09T10:54:34.528Z,50.18
2022-10-09T10:57:21.974Z,49.51
2022-10-09T11:00:06.660Z,47.53
2022-10-09T11:02:56.876Z,47.04
2022-10-09T11:05:47.722Z,45.31
2022-10-09T11:08:44.754Z,44.26
2022-10-09T11:11:19.037Z,43.87
2022-10-09T11:13:56.815Z,43.52
2022-10-09T11:16:36.564Z,44.27
2022-10-09T11:19:33.627Z,43.94
2022-10-09T11:22:11.183Z,43.74
2022-10-09T11:24:54.587Z,43.21
2022-10-09T11:27:27.791Z,42.36
2022-10-09T11:30:09.782Z,42.90
2022-10-09T11:32:51.768Z,42.48
2022-10-09T11:35:24.547Z,42.34
2022-10-09T11:37:58.974Z,42.59
2022-10-09T11:40:40.315Z,42.84
2022-10-09T11:43:09.644Z,43.16
2022-10-09T11:45:53.519Z,44.77
2022-10-09T11:48:48.125Z,44.43
2022-10-09T11:51:29.873Z,44.61
2022-10-09T11:53:58.637Z,44.31
2022-10-09T11:56:28.380Z,45.13
2022-10-09T11:59:04.636Z,45.70
2022-10-09T12:01:41.089Z,45.93
2022-10-09T12:04:13.856Z,45.79
2022-10-09T12:07:04.969Z,46.03
2022-10-09T12:09:45.399Z,45.77
2022-10-09T12:12:18.611Z,46.75
2022-10-09T12:14:48.666Z,46.58
2022-10-09T12:17:38.522Z,46.95
2022-10-09T12:20:16.608Z,47.17
2022-10-09T12:23:07.354Z,47.01
2022-10-09T12:25:44.592Z,47.13
2022-10-09T12:28:30.833Z,46.95
2022-10-09T12:31:00.661Z,46.85
2022-10-09T12:33:51.810Z,47.03
2022-10-09T12:36:30.355Z,46.89
2022-10-09T12:38:57.890Z,47.31
2022-10-09T12:41:33.139Z,47.31
2022-10-09T12:44:00.379Z,46.53
2022-10-09T12:46:36.217Z,46.07
2022-10-09T12:49:06.497Z,44.53
2022-10-09T12:51:34.363Z,44.20
2022-10-09T12:54:09.793Z,44.54
2022-10-09T12:56:39.287Z,44.48
2022-10-09T12:59:10.443Z,45.73
2022-10-09T13:01:37.568Z,45.27
2022-10-09T13:04:08.440Z,44.96
2022-10-09T13:06:50.279Z,45.25
2022-10-09T13:09:24.225Z,45.27
2022-10-09T13:11:58.184Z,45.29
2022-10-09T13:14:34.097Z,45.05
2022-10-09T13:17:01.905Z,45.25
2022-10-09T13:19:31.350Z,45.05
2022-10-09T13:22:22.352Z,45.75
2022-10-09T13:24:54.967Z,45.33
2022-10-09T13:27:28.378Z,45.27
2022-10-09T13:29:55.818Z,45.52
2022-10-09T13:32:24.400Z,45.41
2022-10-09T13:34:55.290Z,45.74
2022-10-09T13:37:25.609Z,45.57
2022-10-09T13:39:58.300Z,45.83
2022-10-09T13:42:33.667Z,45.62
2022-10-09T13:45:00.573Z,45.84
2022-10-09T13:47:27.304Z,46.39
2022-10-09T13:49:54.396Z,46.21
2022-10-09T13:52:21.317Z,46.17
2022-10-09T13:54:48.356Z,46.34
2022-10-09T13:57:15.078Z,46.63
2022-10-09T13:59:42.511Z,46.00
2022-10-09T14:02:11.260Z,46.04
2022-10-09T14:04:38.179Z,46.12
2022-10-09T14:07:05.193Z,45.72
2022-10-09T14:09:31.931Z,46.13
2022-10-09T14:11:59.011Z,46.08
2022-10-09T14:14:25.751Z,45.51
2022-10-09T14:17:01.866Z,45.13
2022-10-09T14:19:28.779Z,45.34
2022-10-09T14:21:56.156Z,45.61
2022-10-09T14:24:24.301Z,46.05
2022-10-09T14:26:51.943Z,46.29
2022-10-09T14:29:18.842Z,46.44
2022-10-09T14:31:45.767Z,46.80
2022-10-09T14:34:15.917Z,47.06
2022-10-09T14:36:42.716Z,47.16
2022-10-09T14:39:09.708Z,47.22
2022-10-09T14:41:37.885Z,47.37
2022-10-09T14:44:05.336Z,47.71
2022-10-09T14:46:37.772Z,47.73
2022-10-09T14:49:07.619Z,47.77
2022-10-09T14:51:37.360Z,47.94
2022-10-09T14:54:04.539Z,48.46
2022-10-09T14:56:31.286Z,47.93
2022-10-09T14:59:00.626Z,48.43
2022-10-09T15:01:29.525Z,48.42
2022-10-09T15:03:56.455Z,48.65
2022-10-09T15:06:27.749Z,48.51
2022-10-09T15:08:59.253Z,48.85
2022-10-09T15:11:30.165Z,49.00
2022-10-09T15:13:57.149Z,49.37
2022-10-09T15:16:25.115Z,49.63
2022-10-09T15:18:55.862Z,49.30
2022-10-09T15:21:26.045Z,49.75
2022-10-09T15:23:58.484Z,49.59
2022-10-09T15:26:27.132Z,49.77
2022-10-09T15:28:53.864Z,49.91
2022-10-09T15:31:28.233Z,50.36
2022-10-09T15:33:56.435Z,50.52
2022-10-09T15:36:24.024Z,50.87
2022-10-09T15:38:51.172Z,51.42
2022-10-09T15:41:21.273Z,51.30
2022-10-09T15:43:48.252Z,51.10
2022-10-09T15:46:15.126Z,51.37
2022-10-09T15:48:42.056Z,52.05
2022-10-09T15:51:13.425Z,52.33
2022-10-09T15:53:42.509Z,52.22
2022-10-09T15:56:10.571Z,52.27
2022-10-09T15:58:37.389Z,52.60
2022-10-09T16:01:06.703Z,52.45
2022-10-09T16:03:36.958Z,52.54
2022-10-09T16:06:07.758Z,52.77
2022-10-09T16:08:35.144Z,52.47
2022-10-09T16:13:43.791Z,52.96
2022-10-09T16:16:14.740Z,52.71
2022-10-09T16:18:41.601Z,53.20
2022-10-09T16:21:11.033Z,53.26
2022-10-09T16:23:38.177Z,53.46
2022-10-09T16:26:05.480Z,53.64
2022-10-09T16:28:33.421Z,53.42
2022-10-09T16:31:00.760Z,53.17
2022-10-09T16:33:27.675Z,53.39
2022-10-09T16:35:54.456Z,53.44
2022-10-09T16:38:21.434Z,53.74
2022-10-09T16:41:01.459Z,53.62
2022-10-09T16:43:29.436Z,53.62
2022-10-09T16:45:56.134Z,53.26
2022-10-09T16:48:22.834Z,53.26
2022-10-09T16:50:49.760Z,53.56
2022-10-09T16:53:16.640Z,53.87
2022-10-09T16:55:43.464Z,54.19
2022-10-09T16:58:10.281Z,54.12
2022-10-09T17:00:37.232Z,54.67
2022-10-09T17:03:04.111Z,54.56
2022-10-09T17:05:31.035Z,54.51
2022-10-09T17:07:57.751Z,54.96
2022-10-09T17:10:24.450Z,55.02
2022-10-09T17:12:51.296Z,55.07
2022-10-09T17:15:18.447Z,55.18
2022-10-09T17:17:45.213Z,55.52
2022-10-09T17:20:13.157Z,55.67
2022-10-09T17:22:39.857Z,55.66
2022-10-09T17:25:07.012Z,55.52
2022-10-09T17:27:33.818Z,56.11
2022-10-09T17:30:00.522Z,55.94
2022-10-09T17:32:27.505Z,55.74
2022-10-09T17:34:54.298Z,56.05
2022-10-09T17:37:21.045Z,55.88
2022-10-09T17:39:52.010Z,56.38
2022-10-09T17:42:19.267Z,56.30
2022-10-09T17:44:46.029Z,56.80
2022-10-09T17:47:12.833Z,56.50
2022-10-09T17:49:39.725Z,56.55
2022-10-09T17:52:06.604Z,56.98
2022-10-09T17:54:33.433Z,56.91
2022-10-09T17:57:01.561Z,57.27
2022-10-09T17:59:28.414Z,57.33
2022-10-09T18:01:55.191Z,57.48
2022-10-09T18:04:22.321Z,57.50
2022-10-09T18:06:49.286Z,57.14
2022-10-09T18:09:16.232Z,57.69
2022-10-09T18:11:43.583Z,57.90
2022-10-09T18:14:10.384Z,57.97
2022-10-09T18:16:38.267Z,58.34
2022-10-09T18:19:12.522Z,58.18
2022-10-09T18:21:45.198Z,58.50
2022-10-09T18:24:13.245Z,58.50
2022-10-09T18:26:40.574Z,58.68
2022-10-09T18:29:07.358Z,58.71
2022-10-09T18:31:34.327Z,58.94
2022-10-09T18:34:01.347Z,59.03
2022-10-09T18:36:34.746Z,58.85
2022-10-09T18:39:05.672Z,58.88
2022-10-09T18:41:32.646Z,59.02
2022-10-09T18:44:00.521Z,58.94
2022-10-09T18:46:34.083Z,58.98
2022-10-09T18:49:01.355Z,59.36
2022-10-09T18:51:28.939Z,59.13
2022-10-09T18:54:00.617Z,59.32
2022-10-09T18:56:32.517Z,59.24
2022-10-09T18:59:00.994Z,59.34
2022-10-09T19:01:27.826Z,59.40
2022-10-09T19:03:54.682Z,59.53
2022-10-09T19:06:23.182Z,59.98
2022-10-09T19:08:50.351Z,59.81
2022-10-09T19:11:17.306Z,60.10
2022-10-09T19:13:44.956Z,60.08
2022-10-09T19:16:12.071Z,60.16
2022-10-09T19:18:39.671Z,60.33
2022-10-09T19:21:07.115Z,60.03
2022-10-09T19:23:33.980Z,60.14
2022-10-09T19:26:00.877Z,60.17
2022-10-09T19:28:31.234Z,60.40
2022-10-09T19:31:02.714Z,60.45
2022-10-09T19:33:29.848Z,60.48
2022-10-09T19:35:57.265Z,60.96
2022-10-09T19:38:24.767Z,60.54
2022-10-09T19:40:51.636Z,60.80
2022-10-09T19:43:19.662Z,60.78
2022-10-09T19:45:49.368Z,60.95
2022-10-09T19:48:17.842Z,61.00
2022-10-09T19:50:45.688Z,61.24
2022-10-09T19:53:13.762Z,61.15
2022-10-09T19:55:40.534Z,60.96
2022-10-09T19:58:07.512Z,61.08
2022-10-09T20:00:34.445Z,60.98
2022-10-09T20:03:01.268Z,60.95
2022-10-09T20:05:28.038Z,60.69
2022-10-09T20:07:54.802Z,61.19
2022-10-09T20:10:21.516Z,61.14
2022-10-09T20:12:48.706Z,60.97
2022-10-09T20:15:15.863Z,61.08
2022-10-09T20:17:42.841Z,61.00
2022-10-09T20:20:09.941Z,60.81
2022-10-09T20:22:36.737Z,61.04
2022-10-09T20:25:05.309Z,60.95
2022-10-09T20:27:32.006Z,61.01
2022-10-09T20:29:58.908Z,61.09
2022-10-09T20:32:25.852Z,60.98
2022-10-09T20:34:52.615Z,61.07
2022-10-09T20:37:19.516Z,60.62
2022-10-09T20:39:46.337Z,60.92
2022-10-09T20:42:14.260Z,61.17
2022-10-09T20:44:42.588Z,60.68
2022-10-09T20:47:09.367Z,60.85
2022-10-09T20:49:36.138Z,61.11
2022-10-09T20:52:03.248Z,61.23
2022-10-09T20:54:30.581Z,61.14
2022-10-09T20:56:58.748Z,61.35
2022-10-09T20:59:25.815Z,61.24
2022-10-09T21:01:52.548Z,61.05
2022-10-09T21:04:19.387Z,61.29
2022-10-09T21:06:46.535Z,61.18
2022-10-09T21:09:13.597Z,61.17
2022-10-09T21:11:41.670Z,61.27
2022-10-09T21:14:09.951Z,60.99
2022-10-09T21:16:36.818Z,60.80
2022-10-09T21:19:05.025Z,60.99
2022-10-09T21:21:34.738Z,60.68
2022-10-09T21:24:02.432Z,60.67
2022-10-09T21:26:30.762Z,60.82
2022-10-09T21:28:59.826Z,60.79
2022-10-09T21:31:29.298Z,60.78
2022-10-09T21:33:56.953Z,60.79
2022-10-09T21:36:29.614Z,60.96
2022-10-09T21:38:56.356Z,61.07
2022-10-09T21:41:23.193Z,60.75
2022-10-09T21:43:50.131Z,60.82
2022-10-09T21:46:16.870Z,61.06
2022-10-09T21:48:43.743Z,61.29
2022-10-09T21:51:10.728Z,61.54
2022-10-09T21:53:37.611Z,61.68
2022-10-09T21:56:05.420Z,61.89
2022-10-09T21:58:32.310Z,61.54
2022-10-09T22:01:01.279Z,61.30
2022-10-09T22:03:30.271Z,61.07
2022-10-09T22:05:57.247Z,60.98
2022-10-09T22:08:24.356Z,60.89
2022-10-09T22:10:51.495Z,61.28
2022-10-09T22:13:20.086Z,61.36
2022-10-09T22:15:50.955Z,61.09
2022-10-09T22:18:18.546Z,61.09
2022-10-09T22:20:49.156Z,61.33
2022-10-09T22:23:18.036Z,61.31
2022-10-09T22:25:44.808Z,61.35
2022-10-09T22:28:11.634Z,61.62
2022-10-09T22:30:39.469Z,61.78
2022-10-09T22:33:06.180Z,61.63
2022-10-09T22:35:33.013Z,62.05
2022-10-09T22:37:59.711Z,61.68
2022-10-09T22:40:26.430Z,61.66
2022-10-09T22:42:53.466Z,61.89
2022-10-09T22:45:20.457Z,61.55
2022-10-09T22:47:48.038Z,61.66
2022-10-09T22:50:15.103Z,61.61
2022-10-09T22:52:41.805Z,61.64
2022-10-09T22:55:09.160Z,61.69
2022-10-09T22:57:36.085Z,61.63
2022-10-09T23:00:03.474Z,61.81
2022-10-09T23:02:31.466Z,62.01
2022-10-09T23:04:58.286Z,61.72
2022-10-09T23:07:25.060Z,61.83
2022-10-09T23:09:51.774Z,61.83
2022-10-09T23:12:18.714Z,61.83
2022-10-09T23:14:45.657Z,61.93
2022-10-09T23:17:12.359Z,62.04
2022-10-09T23:19:39.254Z,61.97
2022-10-09T23:22:06.024Z,62.05
2022-10-09T23:24:32.744Z,62.47
2022-10-09T23:26:59.556Z,62.63
2022-10-09T23:29:26.236Z,62.97
2022-10-09T23:31:53.639Z,62.36
2022-10-09T23:34:20.554Z,62.07
2022-10-09T23:36:47.296Z,62.19
2022-10-09T23:39:14.040Z,62.24
2022-10-09T23:41:40.916Z,62.41
2022-10-09T23:44:07.670Z,62.61
2022-10-09T23:46:34.590Z,62.53
2022-10-09T23:49:01.848Z,63.00
2022-10-09T23:51:28.815Z,62.96
2022-10-09T23:53:56.493Z,63.08
2022-10-09T23:56:28.050Z,63.08
2022-10-09T23:58:56.155Z,63.16
